sensor_id;sensor_type;location;lat;lon;timestamp;P1;durP1;ratioP1;P2;durP2;ratioP2
56911;SDS011;42800;53.928;27.662;2023-03-23T00:01:13;9.13;;;5.40;;
56911;SDS011;42800;53.928;27.662;2023-03-23T00:03:44;10.40;;;5.82;;
56911;SDS011;42800;53.928;27.662;2023-03-23T00:06:12;11.45;;;5.80;;
56911;SDS011;42800;53.928;27.662;2023-03-23T00:08:41;9.82;;;6.13;;
56911;SDS011;42800;53.928;27.662;2023-03-23T00:11:11;11.43;;;6.07;;
56911;SDS011;42800;53.928;27.662;2023-03-23T00:13:40;10.13;;;5.25;;
56911;SDS011;42800;53.928;27.662;2023-03-23T00:16:07;10.63;;;6.30;;
56911;SDS011;42800;53.928;27.662;2023-03-23T00:18:42;10.30;;;5.82;;
56911;SDS011;42800;53.928;27.662;2023-03-23T00:21:08;12.93;;;7.18;;
56911;SDS011;42800;53.928;27.662;2023-03-23T00:23:34;9.90;;;6.03;;
56911;SDS011;42800;53.928;27.662;2023-03-23T00:26:00;12.32;;;6.20;;
56911;SDS011;42800;53.928;27.662;2023-03-23T00:28:27;12.02;;;6.18;;
56911;SDS011;42800;53.928;27.662;2023-03-23T00:30:57;13.65;;;6.95;;
56911;SDS011;42800;53.928;27.662;2023-03-23T00:33:25;13.20;;;7.13;;
56911;SDS011;42800;53.928;27.662;2023-03-23T00:35:53;10.32;;;7.07;;
56911;SDS011;42800;53.928;27.662;2023-03-23T00:38:20;12.52;;;6.88;;
56911;SDS011;42800;53.928;27.662;2023-03-23T00:40:46;10.30;;;6.43;;
56911;SDS011;42800;53.928;27.662;2023-03-23T00:43:12;11.98;;;7.15;;
56911;SDS011;42800;53.928;27.662;2023-03-23T00:45:38;12.45;;;7.18;;
56911;SDS011;42800;53.928;27.662;2023-03-23T00:48:05;17.25;;;7.47;;
56911;SDS011;42800;53.928;27.662;2023-03-23T00:50:31;15.35;;;7.28;;
56911;SDS011;42800;53.928;27.662;2023-03-23T00:52:57;11.80;;;6.70;;
56911;SDS011;42800;53.928;27.662;2023-03-23T00:55:23;15.43;;;6.93;;
56911;SDS011;42800;53.928;27.662;2023-03-23T00:57:49;12.38;;;7.57;;
56911;SDS011;42800;53.928;27.662;2023-03-23T01:00:16;13.65;;;7.82;;
56911;SDS011;42800;53.928;27.662;2023-03-23T01:02:43;14.75;;;8.38;;
56911;SDS011;42800;53.928;27.662;2023-03-23T01:05:10;13.15;;;6.97;;
56911;SDS011;42800;53.928;27.662;2023-03-23T01:07:37;11.23;;;7.32;;
56911;SDS011;42800;53.928;27.662;2023-03-23T01:10:03;19.23;;;7.80;;
56911;SDS011;42800;53.928;27.662;2023-03-23T01:12:30;16.55;;;8.27;;
56911;SDS011;42800;53.928;27.662;2023-03-23T01:14:56;16.20;;;8.02;;
56911;SDS011;42800;53.928;27.662;2023-03-23T01:17:22;17.05;;;8.35;;
56911;SDS011;42800;53.928;27.662;2023-03-23T01:19:47;13.65;;;7.95;;
56911;SDS011;42800;53.928;27.662;2023-03-23T01:22:14;15.30;;;8.63;;
56911;SDS011;42800;53.928;27.662;2023-03-23T01:24:40;14.35;;;8.10;;
56911;SDS011;42800;53.928;27.662;2023-03-23T01:27:06;18.60;;;8.95;;
56911;SDS011;42800;53.928;27.662;2023-03-23T01:29:32;15.50;;;8.48;;
56911;SDS011;42800;53.928;27.662;2023-03-23T01:31:58;18.45;;;9.05;;
56911;SDS011;42800;53.928;27.662;2023-03-23T01:34:24;13.50;;;8.10;;
56911;SDS011;42800;53.928;27.662;2023-03-23T01:36:50;15.80;;;8.55;;
56911;SDS011;42800;53.928;27.662;2023-03-23T01:39:17;16.67;;;9.25;;
56911;SDS011;42800;53.928;27.662;2023-03-23T01:41:43;18.85;;;8.73;;
56911;SDS011;42800;53.928;27.662;2023-03-23T01:47:07;16.88;;;8.27;;
56911;SDS011;42800;53.928;27.662;2023-03-23T01:49:34;14.73;;;7.72;;
56911;SDS011;42800;53.928;27.662;2023-03-23T01:52:04;17.60;;;9.23;;
56911;SDS011;42800;53.928;27.662;2023-03-23T01:54:33;13.82;;;8.43;;
56911;SDS011;42800;53.928;27.662;2023-03-23T01:57:02;16.48;;;8.35;;
56911;SDS011;42800;53.928;27.662;2023-03-23T01:59:33;21.20;;;9.05;;
56911;SDS011;42800;53.928;27.662;2023-03-23T02:02:00;13.60;;;8.73;;
56911;SDS011;42800;53.928;27.662;2023-03-23T02:04:27;15.65;;;8.82;;
56911;SDS011;42800;53.928;27.662;2023-03-23T02:06:55;14.05;;;8.05;;
56911;SDS011;42800;53.928;27.662;2023-03-23T02:09:22;16.73;;;8.77;;
56911;SDS011;42800;53.928;27.662;2023-03-23T02:11:51;16.30;;;8.73;;
56911;SDS011;42800;53.928;27.662;2023-03-23T02:14:19;16.23;;;7.97;;
56911;SDS011;42800;53.928;27.662;2023-03-23T02:16:47;17.00;;;9.32;;
56911;SDS011;42800;53.928;27.662;2023-03-23T02:19:29;18.63;;;8.90;;
56911;SDS011;42800;53.928;27.662;2023-03-23T02:22:26;15.13;;;9.10;;
56911;SDS011;42800;53.928;27.662;2023-03-23T02:31:03;18.45;;;8.93;;
56911;SDS011;42800;53.928;27.662;2023-03-23T02:33:44;17.60;;;9.73;;
56911;SDS011;42800;53.928;27.662;2023-03-23T02:36:18;17.15;;;9.07;;
56911;SDS011;42800;53.928;27.662;2023-03-23T02:38:53;16.67;;;9.48;;
56911;SDS011;42800;53.928;27.662;2023-03-23T02:41:25;17.67;;;9.40;;
56911;SDS011;42800;53.928;27.662;2023-03-23T02:43:56;15.65;;;9.55;;
56911;SDS011;42800;53.928;27.662;2023-03-23T02:46:23;16.48;;;9.35;;
56911;SDS011;42800;53.928;27.662;2023-03-23T02:48:51;19.77;;;10.30;;
56911;SDS011;42800;53.928;27.662;2023-03-23T02:51:21;16.98;;;9.95;;
56911;SDS011;42800;53.928;27.662;2023-03-23T02:53:50;18.80;;;10.43;;
56911;SDS011;42800;53.928;27.662;2023-03-23T02:56:19;19.33;;;10.27;;
56911;SDS011;42800;53.928;27.662;2023-03-23T02:58:48;18.92;;;10.27;;
56911;SDS011;42800;53.928;27.662;2023-03-23T03:01:15;18.88;;;10.35;;
56911;SDS011;42800;53.928;27.662;2023-03-23T03:03:58;16.92;;;10.02;;
56911;SDS011;42800;53.928;27.662;2023-03-23T03:06:30;18.10;;;10.93;;
56911;SDS011;42800;53.928;27.662;2023-03-23T03:09:01;19.45;;;10.15;;
56911;SDS011;42800;53.928;27.662;2023-03-23T03:11:31;19.15;;;9.60;;
56911;SDS011;42800;53.928;27.662;2023-03-23T03:13:59;17.83;;;10.00;;
56911;SDS011;42800;53.928;27.662;2023-03-23T03:16:29;20.95;;;12.15;;
56911;SDS011;42800;53.928;27.662;2023-03-23T03:18:58;20.80;;;10.13;;
56911;SDS011;42800;53.928;27.662;2023-03-23T03:21:28;18.73;;;10.18;;
56911;SDS011;42800;53.928;27.662;2023-03-23T03:23:58;17.48;;;10.82;;
56911;SDS011;42800;53.928;27.662;2023-03-23T03:26:27;21.38;;;10.85;;
56911;SDS011;42800;53.928;27.662;2023-03-23T03:28:56;22.88;;;11.43;;
56911;SDS011;42800;53.928;27.662;2023-03-23T03:31:23;26.33;;;12.27;;
56911;SDS011;42800;53.928;27.662;2023-03-23T03:33:52;31.08;;;13.80;;
56911;SDS011;42800;53.928;27.662;2023-03-23T03:36:20;29.17;;;13.63;;
56911;SDS011;42800;53.928;27.662;2023-03-23T03:38:50;29.83;;;13.13;;
56911;SDS011;42800;53.928;27.662;2023-03-23T03:41:16;28.13;;;14.55;;
56911;SDS011;42800;53.928;27.662;2023-03-23T03:43:43;29.98;;;14.63;;
56911;SDS011;42800;53.928;27.662;2023-03-23T03:46:10;27.73;;;13.45;;
56911;SDS011;42800;53.928;27.662;2023-03-23T03:48:36;30.27;;;14.50;;
56911;SDS011;42800;53.928;27.662;2023-03-23T03:51:02;28.50;;;14.43;;
56911;SDS011;42800;53.928;27.662;2023-03-23T03:53:29;31.27;;;16.35;;
56911;SDS011;42800;53.928;27.662;2023-03-23T03:55:57;35.78;;;16.17;;
56911;SDS011;42800;53.928;27.662;2023-03-23T03:58:26;31.73;;;15.63;;
56911;SDS011;42800;53.928;27.662;2023-03-23T04:00:56;35.25;;;16.98;;
56911;SDS011;42800;53.928;27.662;2023-03-23T04:03:23;33.55;;;16.95;;
56911;SDS011;42800;53.928;27.662;2023-03-23T04:05:50;35.47;;;16.95;;
56911;SDS011;42800;53.928;27.662;2023-03-23T04:08:16;30.15;;;16.70;;
56911;SDS011;42800;53.928;27.662;2023-03-23T04:10:43;33.75;;;17.30;;
56911;SDS011;42800;53.928;27.662;2023-03-23T04:13:09;31.90;;;15.80;;
56911;SDS011;42800;53.928;27.662;2023-03-23T04:15:35;26.83;;;15.52;;
56911;SDS011;42800;53.928;27.662;2023-03-23T04:18:01;36.05;;;16.83;;
56911;SDS011;42800;53.928;27.662;2023-03-23T04:20:27;29.67;;;15.88;;
56911;SDS011;42800;53.928;27.662;2023-03-23T04:22:53;31.30;;;15.35;;
56911;SDS011;42800;53.928;27.662;2023-03-23T04:25:20;34.58;;;16.00;;
56911;SDS011;42800;53.928;27.662;2023-03-23T04:27:47;31.10;;;15.68;;
56911;SDS011;42800;53.928;27.662;2023-03-23T04:30:17;30.35;;;15.25;;
56911;SDS011;42800;53.928;27.662;2023-03-23T04:32:45;27.50;;;14.85;;
56911;SDS011;42800;53.928;27.662;2023-03-23T04:35:15;28.73;;;15.07;;
56911;SDS011;42800;53.928;27.662;2023-03-23T04:37:42;31.67;;;14.85;;
56911;SDS011;42800;53.928;27.662;2023-03-23T04:40:08;30.38;;;14.73;;
56911;SDS011;42800;53.928;27.662;2023-03-23T04:42:37;27.10;;;13.18;;
56911;SDS011;42800;53.928;27.662;2023-03-23T04:45:05;26.55;;;14.98;;
56911;SDS011;42800;53.928;27.662;2023-03-23T04:47:33;30.05;;;15.40;;
56911;SDS011;42800;53.928;27.662;2023-03-23T04:50:06;29.80;;;14.00;;
56911;SDS011;42800;53.928;27.662;2023-03-23T04:52:33;33.30;;;15.35;;
56911;SDS011;42800;53.928;27.662;2023-03-23T04:54:59;32.10;;;16.05;;
56911;SDS011;42800;53.928;27.662;2023-03-23T04:57:25;30.85;;;15.93;;
56911;SDS011;42800;53.928;27.662;2023-03-23T04:59:53;38.15;;;17.48;;
56911;SDS011;42800;53.928;27.662;2023-03-23T05:02:19;36.22;;;18.15;;
56911;SDS011;42800;53.928;27.662;2023-03-23T05:04:45;36.55;;;18.20;;
56911;SDS011;42800;53.928;27.662;2023-03-23T05:07:11;36.08;;;18.85;;
56911;SDS011;42800;53.928;27.662;2023-03-23T05:09:37;26.88;;;15.20;;
56911;SDS011;42800;53.928;27.662;2023-03-23T05:12:03;36.90;;;15.88;;
56911;SDS011;42800;53.928;27.662;2023-03-23T05:14:30;32.60;;;16.63;;
56911;SDS011;42800;53.928;27.662;2023-03-23T05:16:56;31.92;;;15.50;;
56911;SDS011;42800;53.928;27.662;2023-03-23T05:19:23;36.88;;;17.13;;
56911;SDS011;42800;53.928;27.662;2023-03-23T05:21:49;29.85;;;15.77;;
56911;SDS011;42800;53.928;27.662;2023-03-23T05:24:15;34.60;;;16.33;;
56911;SDS011;42800;53.928;27.662;2023-03-23T05:26:41;40.53;;;16.92;;
56911;SDS011;42800;53.928;27.662;2023-03-23T05:29:07;35.05;;;17.20;;
56911;SDS011;42800;53.928;27.662;2023-03-23T05:31:32;33.55;;;15.93;;
56911;SDS011;42800;53.928;27.662;2023-03-23T05:33:58;31.88;;;15.82;;
56911;SDS011;42800;53.928;27.662;2023-03-23T05:36:26;39.20;;;16.67;;
56911;SDS011;42800;53.928;27.662;2023-03-23T05:38:52;29.35;;;15.05;;
56911;SDS011;42800;53.928;27.662;2023-03-23T05:41:18;36.42;;;17.27;;
56911;SDS011;42800;53.928;27.662;2023-03-23T05:43:44;31.70;;;15.35;;
56911;SDS011;42800;53.928;27.662;2023-03-23T05:51:20;28.90;;;15.48;;
56911;SDS011;42800;53.928;27.662;2023-03-23T05:53:47;27.60;;;14.50;;
56911;SDS011;42800;53.928;27.662;2023-03-23T05:56:16;27.30;;;15.18;;
56911;SDS011;42800;53.928;27.662;2023-03-23T05:58:42;28.10;;;14.35;;
56911;SDS011;42800;53.928;27.662;2023-03-23T06:01:08;27.00;;;13.30;;
56911;SDS011;42800;53.928;27.662;2023-03-23T06:03:34;20.52;;;12.40;;
56911;SDS011;42800;53.928;27.662;2023-03-23T06:06:01;26.58;;;14.27;;
56911;SDS011;42800;53.928;27.662;2023-03-23T06:08:28;21.33;;;12.20;;
56911;SDS011;42800;53.928;27.662;2023-03-23T06:11:02;22.70;;;12.73;;
56911;SDS011;42800;53.928;27.662;2023-03-23T06:13:29;24.02;;;12.75;;
56911;SDS011;42800;53.928;27.662;2023-03-23T06:15:55;28.88;;;14.55;;
56911;SDS011;42800;53.928;27.662;2023-03-23T06:18:22;27.88;;;13.88;;
56911;SDS011;42800;53.928;27.662;2023-03-23T06:20:48;30.27;;;15.05;;
56911;SDS011;42800;53.928;27.662;2023-03-23T06:23:15;31.45;;;14.75;;
56911;SDS011;42800;53.928;27.662;2023-03-23T06:25:42;29.73;;;13.95;;
56911;SDS011;42800;53.928;27.662;2023-03-23T06:28:09;29.08;;;16.08;;
56911;SDS011;42800;53.928;27.662;2023-03-23T06:30:35;33.33;;;14.32;;
56911;SDS011;42800;53.928;27.662;2023-03-23T06:33:01;31.90;;;14.45;;
56911;SDS011;42800;53.928;27.662;2023-03-23T06:35:30;32.78;;;15.45;;
56911;SDS011;42800;53.928;27.662;2023-03-23T06:37:56;34.53;;;16.58;;
56911;SDS011;42800;53.928;27.662;2023-03-23T06:40:26;35.60;;;18.23;;
56911;SDS011;42800;53.928;27.662;2023-03-23T06:42:53;38.63;;;19.65;;
56911;SDS011;42800;53.928;27.662;2023-03-23T06:45:20;37.20;;;17.77;;
56911;SDS011;42800;53.928;27.662;2023-03-23T06:47:46;31.50;;;15.88;;
56911;SDS011;42800;53.928;27.662;2023-03-23T06:50:13;29.67;;;14.63;;
56911;SDS011;42800;53.928;27.662;2023-03-23T06:52:40;34.95;;;15.73;;
56911;SDS011;42800;53.928;27.662;2023-03-23T06:55:06;33.08;;;16.08;;
56911;SDS011;42800;53.928;27.662;2023-03-23T06:57:33;31.52;;;16.35;;
56911;SDS011;42800;53.928;27.662;2023-03-23T06:59:59;29.98;;;15.10;;
56911;SDS011;42800;53.928;27.662;2023-03-23T07:02:26;31.17;;;16.38;;
56911;SDS011;42800;53.928;27.662;2023-03-23T07:04:52;44.30;;;16.63;;
56911;SDS011;42800;53.928;27.662;2023-03-23T07:07:19;28.42;;;14.35;;
56911;SDS011;42800;53.928;27.662;2023-03-23T07:09:45;35.67;;;14.80;;
56911;SDS011;42800;53.928;27.662;2023-03-23T07:12:11;33.17;;;15.55;;
56911;SDS011;42800;53.928;27.662;2023-03-23T07:14:37;27.83;;;13.10;;
56911;SDS011;42800;53.928;27.662;2023-03-23T07:17:03;29.63;;;14.55;;
56911;SDS011;42800;53.928;27.662;2023-03-23T07:19:30;30.38;;;14.23;;
56911;SDS011;42800;53.928;27.662;2023-03-23T07:21:56;24.10;;;13.13;;
56911;SDS011;42800;53.928;27.662;2023-03-23T07:24:22;28.90;;;13.52;;
56911;SDS011;42800;53.928;27.662;2023-03-23T07:26:48;25.02;;;13.52;;
56911;SDS011;42800;53.928;27.662;2023-03-23T07:29:14;24.60;;;12.93;;
56911;SDS011;42800;53.928;27.662;2023-03-23T07:31:40;27.20;;;13.18;;
56911;SDS011;42800;53.928;27.662;2023-03-23T07:34:07;25.77;;;12.85;;
56911;SDS011;42800;53.928;27.662;2023-03-23T07:36:33;27.13;;;12.25;;
56911;SDS011;42800;53.928;27.662;2023-03-23T07:39:02;25.48;;;13.15;;
56911;SDS011;42800;53.928;27.662;2023-03-23T07:41:30;28.52;;;14.18;;
56911;SDS011;42800;53.928;27.662;2023-03-23T07:43:56;30.33;;;13.38;;
56911;SDS011;42800;53.928;27.662;2023-03-23T07:46:22;27.60;;;13.23;;
56911;SDS011;42800;53.928;27.662;2023-03-23T07:48:48;20.13;;;12.25;;
56911;SDS011;42800;53.928;27.662;2023-03-23T07:51:14;25.40;;;11.70;;
56911;SDS011;42800;53.928;27.662;2023-03-23T07:53:42;18.13;;;10.15;;
56911;SDS011;42800;53.928;27.662;2023-03-23T07:56:09;24.80;;;13.90;;
56911;SDS011;42800;53.928;27.662;2023-03-23T07:58:35;19.92;;;11.45;;
56911;SDS011;42800;53.928;27.662;2023-03-23T08:01:01;21.08;;;11.60;;
56911;SDS011;42800;53.928;27.662;2023-03-23T08:03:27;17.33;;;10.25;;
56911;SDS011;42800;53.928;27.662;2023-03-23T08:05:56;24.25;;;12.88;;
56911;SDS011;42800;53.928;27.662;2023-03-23T08:08:24;24.42;;;13.07;;
56911;SDS011;42800;53.928;27.662;2023-03-23T08:10:50;24.10;;;11.85;;
56911;SDS011;42800;53.928;27.662;2023-03-23T08:13:17;23.45;;;12.80;;
56911;SDS011;42800;53.928;27.662;2023-03-23T08:15:43;20.25;;;10.35;;
56911;SDS011;42800;53.928;27.662;2023-03-23T08:18:10;18.27;;;10.90;;
56911;SDS011;42800;53.928;27.662;2023-03-23T08:20:36;22.90;;;11.60;;
56911;SDS011;42800;53.928;27.662;2023-03-23T08:23:03;22.00;;;11.20;;
56911;SDS011;42800;53.928;27.662;2023-03-23T08:25:29;23.02;;;12.10;;
56911;SDS011;42800;53.928;27.662;2023-03-23T08:27:57;18.23;;;10.90;;
56911;SDS011;42800;53.928;27.662;2023-03-23T08:30:24;21.05;;;11.73;;
56911;SDS011;42800;53.928;27.662;2023-03-23T08:32:51;24.77;;;12.18;;
56911;SDS011;42800;53.928;27.662;2023-03-23T08:35:17;28.08;;;11.90;;
56911;SDS011;42800;53.928;27.662;2023-03-23T08:37:44;19.17;;;10.68;;
56911;SDS011;42800;53.928;27.662;2023-03-23T08:40:12;19.67;;;10.93;;
56911;SDS011;42800;53.928;27.662;2023-03-23T08:42:40;19.05;;;9.02;;
56911;SDS011;42800;53.928;27.662;2023-03-23T08:45:15;19.70;;;10.15;;
56911;SDS011;42800;53.928;27.662;2023-03-23T08:47:43;17.60;;;9.35;;
56911;SDS011;42800;53.928;27.662;2023-03-23T08:50:10;16.90;;;9.65;;
56911;SDS011;42800;53.928;27.662;2023-03-23T08:52:38;21.35;;;10.35;;
56911;SDS011;42800;53.928;27.662;2023-03-23T08:55:04;17.30;;;9.85;;
56911;SDS011;42800;53.928;27.662;2023-03-23T08:57:34;23.63;;;10.85;;
56911;SDS011;42800;53.928;27.662;2023-03-23T09:00:00;19.38;;;10.23;;
56911;SDS011;42800;53.928;27.662;2023-03-23T09:02:39;19.17;;;10.15;;
56911;SDS011;42800;53.928;27.662;2023-03-23T09:05:05;19.58;;;10.57;;
56911;SDS011;42800;53.928;27.662;2023-03-23T09:07:32;21.92;;;9.55;;
56911;SDS011;42800;53.928;27.662;2023-03-23T09:09:58;20.02;;;11.02;;
56911;SDS011;42800;53.928;27.662;2023-03-23T09:12:24;24.60;;;11.02;;
56911;SDS011;42800;53.928;27.662;2023-03-23T09:14:51;17.45;;;9.32;;
56911;SDS011;42800;53.928;27.662;2023-03-23T09:17:17;19.75;;;11.18;;
56911;SDS011;42800;53.928;27.662;2023-03-23T09:19:43;19.20;;;10.25;;
56911;SDS011;42800;53.928;27.662;2023-03-23T09:22:09;18.50;;;9.82;;
56911;SDS011;42800;53.928;27.662;2023-03-23T09:24:35;18.27;;;10.30;;
56911;SDS011;42800;53.928;27.662;2023-03-23T09:27:02;21.95;;;10.23;;
56911;SDS011;42800;53.928;27.662;2023-03-23T09:29:28;16.80;;;10.07;;
56911;SDS011;42800;53.928;27.662;2023-03-23T09:31:54;17.48;;;10.20;;
56911;SDS011;42800;53.928;27.662;2023-03-23T09:34:21;19.70;;;10.07;;
56911;SDS011;42800;53.928;27.662;2023-03-23T09:36:48;20.13;;;9.63;;
56911;SDS011;42800;53.928;27.662;2023-03-23T09:39:14;20.42;;;11.18;;
56911;SDS011;42800;53.928;27.662;2023-03-23T09:41:49;21.42;;;9.48;;
56911;SDS011;42800;53.928;27.662;2023-03-23T09:44:26;19.00;;;10.30;;
56911;SDS011;42800;53.928;27.662;2023-03-23T09:47:01;19.17;;;9.77;;
56911;SDS011;42800;53.928;27.662;2023-03-23T09:49:32;19.92;;;10.10;;
56911;SDS011;42800;53.928;27.662;2023-03-23T09:52:02;20.80;;;10.02;;
56911;SDS011;42800;53.928;27.662;2023-03-23T09:54:35;22.30;;;11.30;;
56911;SDS011;42800;53.928;27.662;2023-03-23T09:57:04;20.85;;;9.70;;
56911;SDS011;42800;53.928;27.662;2023-03-23T09:59:37;17.75;;;9.90;;
56911;SDS011;42800;53.928;27.662;2023-03-23T10:02:10;17.58;;;9.90;;
56911;SDS011;42800;53.928;27.662;2023-03-23T10:04:41;15.57;;;9.60;;
56911;SDS011;42800;53.928;27.662;2023-03-23T10:07:12;17.77;;;9.00;;
56911;SDS011;42800;53.928;27.662;2023-03-23T10:09:39;17.15;;;10.15;;
56911;SDS011;42800;53.928;27.662;2023-03-23T10:12:09;19.85;;;9.68;;
56911;SDS011;42800;53.928;27.662;2023-03-23T10:17:17;18.67;;;10.00;;
56911;SDS011;42800;53.928;27.662;2023-03-23T10:25:14;16.27;;;10.15;;
56911;SDS011;42800;53.928;27.662;2023-03-23T10:27:42;16.20;;;9.10;;
56911;SDS011;42800;53.928;27.662;2023-03-23T10:30:15;20.05;;;9.30;;
56911;SDS011;42800;53.928;27.662;2023-03-23T10:32:48;19.17;;;10.82;;
56911;SDS011;42800;53.928;27.662;2023-03-23T10:35:18;16.67;;;9.57;;
56911;SDS011;42800;53.928;27.662;2023-03-23T10:37:52;19.60;;;9.32;;
56911;SDS011;42800;53.928;27.662;2023-03-23T10:40:23;13.35;;;8.18;;
56911;SDS011;42800;53.928;27.662;2023-03-23T10:42:52;21.67;;;10.10;;
56911;SDS011;42800;53.928;27.662;2023-03-23T10:45:20;18.33;;;9.40;;
56911;SDS011;42800;53.928;27.662;2023-03-23T10:47:51;22.80;;;10.52;;
56911;SDS011;42800;53.928;27.662;2023-03-23T10:50:22;19.33;;;9.70;;
56911;SDS011;42800;53.928;27.662;2023-03-23T10:52:52;15.82;;;10.13;;
56911;SDS011;42800;53.928;27.662;2023-03-23T10:55:21;24.27;;;9.70;;
56911;SDS011;42800;53.928;27.662;2023-03-23T10:57:58;18.35;;;9.75;;
56911;SDS011;42800;53.928;27.662;2023-03-23T11:00:26;15.65;;;9.85;;
56911;SDS011;42800;53.928;27.662;2023-03-23T11:02:57;18.92;;;10.35;;
56911;SDS011;42800;53.928;27.662;2023-03-23T11:05:27;17.95;;;10.18;;
56911;SDS011;42800;53.928;27.662;2023-03-23T11:08:00;21.50;;;10.85;;
56911;SDS011;42800;53.928;27.662;2023-03-23T11:10:28;16.02;;;9.85;;
56911;SDS011;42800;53.928;27.662;2023-03-23T11:13:01;21.55;;;10.95;;
56911;SDS011;42800;53.928;27.662;2023-03-23T11:15:30;19.58;;;10.10;;
56911;SDS011;42800;53.928;27.662;2023-03-23T11:17:58;18.75;;;10.00;;
56911;SDS011;42800;53.928;27.662;2023-03-23T11:20:26;21.17;;;10.57;;
56911;SDS011;42800;53.928;27.662;2023-03-23T11:22:54;12.98;;;9.07;;
56911;SDS011;42800;53.928;27.662;2023-03-23T11:25:21;19.52;;;9.35;;
56911;SDS011;42800;53.928;27.662;2023-03-23T11:27:47;32.85;;;17.63;;
56911;SDS011;42800;53.928;27.662;2023-03-23T11:30:19;16.70;;;9.07;;
56911;SDS011;42800;53.928;27.662;2023-03-23T11:32:49;16.15;;;8.32;;
56911;SDS011;42800;53.928;27.662;2023-03-23T11:35:19;16.45;;;9.40;;
56911;SDS011;42800;53.928;27.662;2023-03-23T11:37:48;16.25;;;8.98;;
56911;SDS011;42800;53.928;27.662;2023-03-23T11:40:17;14.60;;;8.57;;
56911;SDS011;42800;53.928;27.662;2023-03-23T11:42:47;14.45;;;8.98;;
56911;SDS011;42800;53.928;27.662;2023-03-23T11:45:16;17.55;;;8.82;;
56911;SDS011;42800;53.928;27.662;2023-03-23T11:47:48;16.27;;;9.73;;
56911;SDS011;42800;53.928;27.662;2023-03-23T11:50:21;14.65;;;9.15;;
56911;SDS011;42800;53.928;27.662;2023-03-23T11:52:51;13.25;;;9.00;;
56911;SDS011;42800;53.928;27.662;2023-03-23T11:55:24;18.08;;;9.52;;
56911;SDS011;42800;53.928;27.662;2023-03-23T11:57:54;16.65;;;9.32;;
56911;SDS011;42800;53.928;27.662;2023-03-23T12:00:21;23.65;;;10.27;;
56911;SDS011;42800;53.928;27.662;2023-03-23T12:02:51;17.52;;;8.57;;
56911;SDS011;42800;53.928;27.662;2023-03-23T12:08:16;20.88;;;9.35;;
56911;SDS011;42800;53.928;27.662;2023-03-23T12:10:59;20.77;;;9.95;;
56911;SDS011;42800;53.928;27.662;2023-03-23T12:13:40;19.58;;;9.32;;
56911;SDS011;42800;53.928;27.662;2023-03-23T12:16:20;18.30;;;8.70;;
56911;SDS011;42800;53.928;27.662;2023-03-23T12:18:58;16.77;;;8.13;;
56911;SDS011;42800;53.928;27.662;2023-03-23T12:21:34;13.85;;;8.93;;
56911;SDS011;42800;53.928;27.662;2023-03-23T12:24:08;17.40;;;10.40;;
56911;SDS011;42800;53.928;27.662;2023-03-23T12:26:44;15.05;;;8.75;;
56911;SDS011;42800;53.928;27.662;2023-03-23T12:29:30;15.63;;;9.07;;
56911;SDS011;42800;53.928;27.662;2023-03-23T12:34:57;14.30;;;8.65;;
56911;SDS011;42800;53.928;27.662;2023-03-23T12:37:34;17.08;;;9.23;;
56911;SDS011;42800;53.928;27.662;2023-03-23T12:40:16;16.10;;;8.82;;
56911;SDS011;42800;53.928;27.662;2023-03-23T12:42:53;43.63;;;11.25;;
56911;SDS011;42800;53.928;27.662;2023-03-23T12:45:37;17.30;;;8.87;;
56911;SDS011;42800;53.928;27.662;2023-03-23T12:48:14;21.27;;;9.13;;
56911;SDS011;42800;53.928;27.662;2023-03-23T12:50:44;17.30;;;9.02;;
56911;SDS011;42800;53.928;27.662;2023-03-23T12:53:26;19.30;;;9.57;;
56911;SDS011;42800;53.928;27.662;2023-03-23T12:56:04;24.27;;;10.32;;
56911;SDS011;42800;53.928;27.662;2023-03-23T12:58:35;21.02;;;9.82;;
56911;SDS011;42800;53.928;27.662;2023-03-23T13:01:07;18.70;;;9.82;;
56911;SDS011;42800;53.928;27.662;2023-03-23T13:03:40;20.38;;;10.90;;
56911;SDS011;42800;53.928;27.662;2023-03-23T13:06:12;22.98;;;9.70;;
56911;SDS011;42800;53.928;27.662;2023-03-23T13:08:51;24.15;;;11.15;;
56911;SDS011;42800;53.928;27.662;2023-03-23T13:11:29;28.00;;;12.27;;
56911;SDS011;42800;53.928;27.662;2023-03-23T13:13:59;25.38;;;11.10;;
56911;SDS011;42800;53.928;27.662;2023-03-23T13:16:37;24.65;;;10.57;;
56911;SDS011;42800;53.928;27.662;2023-03-23T13:19:09;23.73;;;10.73;;
56911;SDS011;42800;53.928;27.662;2023-03-23T13:21:41;21.88;;;9.50;;
56911;SDS011;42800;53.928;27.662;2023-03-23T13:24:13;25.08;;;10.65;;
56911;SDS011;42800;53.928;27.662;2023-03-23T13:26:43;22.80;;;10.35;;
56911;SDS011;42800;53.928;27.662;2023-03-23T13:29:12;25.52;;;9.68;;
56911;SDS011;42800;53.928;27.662;2023-03-23T13:31:40;23.05;;;10.48;;
56911;SDS011;42800;53.928;27.662;2023-03-23T13:34:11;25.08;;;10.15;;
56911;SDS011;42800;53.928;27.662;2023-03-23T13:36:41;24.17;;;11.32;;
56911;SDS011;42800;53.928;27.662;2023-03-23T13:39:16;31.42;;;11.02;;
56911;SDS011;42800;53.928;27.662;2023-03-23T13:41:47;27.90;;;10.40;;
56911;SDS011;42800;53.928;27.662;2023-03-23T13:44:18;26.25;;;11.00;;
56911;SDS011;42800;53.928;27.662;2023-03-23T13:46:54;20.60;;;10.95;;
56911;SDS011;42800;53.928;27.662;2023-03-23T13:49:22;29.30;;;17.33;;
56911;SDS011;42800;53.928;27.662;2023-03-23T13:51:59;25.02;;;10.82;;
56911;SDS011;42800;53.928;27.662;2023-03-23T13:54:46;20.13;;;9.57;;
56911;SDS011;42800;53.928;27.662;2023-03-23T13:57:20;22.38;;;10.85;;
56911;SDS011;42800;53.928;27.662;2023-03-23T13:59:56;24.75;;;12.95;;
56911;SDS011;42800;53.928;27.662;2023-03-23T14:02:31;31.03;;;13.80;;
56911;SDS011;42800;53.928;27.662;2023-03-23T14:05:19;36.42;;;15.02;;
56911;SDS011;42800;53.928;27.662;2023-03-23T14:07:59;36.80;;;15.80;;
56911;SDS011;42800;53.928;27.662;2023-03-23T14:10:36;30.45;;;13.93;;
56911;SDS011;42800;53.928;27.662;2023-03-23T14:13:09;32.83;;;24.55;;
56911;SDS011;42800;53.928;27.662;2023-03-23T14:15:41;24.15;;;13.80;;
56911;SDS011;42800;53.928;27.662;2023-03-23T14:18:11;29.23;;;14.23;;
56911;SDS011;42800;53.928;27.662;2023-03-23T14:20:40;32.38;;;14.13;;
56911;SDS011;42800;53.928;27.662;2023-03-23T14:23:12;39.78;;;13.45;;
56911;SDS011;42800;53.928;27.662;2023-03-23T14:25:41;25.23;;;11.17;;
56911;SDS011;42800;53.928;27.662;2023-03-23T14:28:15;22.63;;;12.07;;
56911;SDS011;42800;53.928;27.662;2023-03-23T14:30:42;21.70;;;10.23;;
56911;SDS011;42800;53.928;27.662;2023-03-23T14:33:09;17.83;;;13.07;;
56911;SDS011;42800;53.928;27.662;2023-03-23T14:35:40;13.85;;;7.70;;
56911;SDS011;42800;53.928;27.662;2023-03-23T14:38:10;19.33;;;7.75;;
56911;SDS011;42800;53.928;27.662;2023-03-23T14:40:40;22.92;;;8.93;;
56911;SDS011;42800;53.928;27.662;2023-03-23T14:43:08;13.35;;;7.88;;
56911;SDS011;42800;53.928;27.662;2023-03-23T14:45:37;17.48;;;8.10;;
56911;SDS011;42800;53.928;27.662;2023-03-23T14:48:04;12.93;;;7.57;;
56911;SDS011;42800;53.928;27.662;2023-03-23T14:50:37;12.35;;;7.30;;
56911;SDS011;42800;53.928;27.662;2023-03-23T14:53:09;12.45;;;7.05;;